MSC Bari — A8YD3 — position and weather

sailwx.info

Track history (hours):
 
Tides and Currents Weather Stations Pressure Air Temp Water Temp Dewpoint Dewpoint Depression Visibility Wind Speed Wind Dir Waves Ship Positions

MSC Bari

Last reported at 2016-Jun-17 18:22 UTC. Time now 2016-Jun-29 00:14 UTC.
Position N 01°11' E 103°39'.
Warning: this ship's position is 11 days out of date.

Length 366 m; draft 16.3 m.

Type: Ship (hazmat cat A). MMSI: 636092188.

Date/timePositionNaut miles runAvg speedWind from/ knotsBaromVisibWave heightAir tempDewpointWater temp
2016-Jun-17 18:22N 01°11' E 103°39'810.4
2016-Jun-17 17:33N 01°10' E 103°48'6 6.2
2016-Jun-17 16:34N 01°16' E 103°46'0 0.2
2016-Jun-17 15:33N 01°16' E 103°46'0 0.0
2016-Jun-17 14:33N 01°16' E 103°46'0 0.0
2016-Jun-17 13:33N 01°16' E 103°46'0 0.0
2016-Jun-17 12:33N 01°16' E 103°46'0 0.0
2016-Jun-17 11:33N 01°16' E 103°46'0 0.0
2016-Jun-17 10:24N 01°16' E 103°46'0 0.0
2016-Jun-17 09:30N 01°16' E 103°46'0 0.0
2016-Jun-17 08:24N 01°16' E 103°46'0 0.0
2016-Jun-17 07:33N 01°16' E 103°46'0 0.0
2016-Jun-17 06:18N 01°16' E 103°46'0 0.0
2016-Jun-17 05:33N 01°16' E 103°46'0 0.0
2016-Jun-17 04:33N 01°16' E 103°46'0 0.0
2016-Jun-17 03:33N 01°16' E 103°46'0 0.0
2016-Jun-17 02:33N 01°16' E 103°46'0 0.0
2016-Jun-17 01:33N 01°16' E 103°46'0 0.0
2016-Jun-17 00:30N 01°16' E 103°46'0 0.0
2016-Jun-16 23:33N 01°16' E 103°46'0 0.0
2016-Jun-16 22:33N 01°16' E 103°46'0 0.0
2016-Jun-16 21:33N 01°16' E 103°46'0 0.0
2016-Jun-16 20:33N 01°16' E 103°46'0 0.0
2016-Jun-16 19:27N 01°16' E 103°46'0 0.0
2016-Jun-16 18:30N 01°16' E 103°46'0 0.0
2016-Jun-16 17:30N 01°16' E 103°46'0 0.0
2016-Jun-16 16:33N 01°16' E 103°46'0 0.0
2016-Jun-16 15:33N 01°16' E 103°46'0 0.0
2016-Jun-16 14:33N 01°16' E 103°46'0 0.0
2016-Jun-16 13:33N 01°16' E 103°46'0 0.0
2016-Jun-16 12:33N 01°16' E 103°46'0 0.0
2016-Jun-16 11:33N 01°16' E 103°46'0 0.0
2016-Jun-16 10:27N 01°16' E 103°46'0 0.0
2016-Jun-16 09:30N 01°16' E 103°46'0 0.5
2016-Jun-16 08:34N 01°16' E 103°46'8 7.7
2016-Jun-16 07:33N 01°13' E 103°53'1110.9
2016-Jun-16 06:33N 01°16' E 104°04'  
2016-Jun-13 08:33N 21°03' E 114°10'7515.1
2016-Jun-13 03:33N 22°19' E 114°05'1210.3
2016-Jun-13 02:25N 22°23' E 113°54'5 5.3
2016-Jun-13 01:33N 22°28' E 113°53'0 0.1
2016-Jun-13 00:28N 22°28' E 113°53'0 0.0
2016-Jun-12 23:28N 22°28' E 113°53'0 0.0
2016-Jun-12 22:22N 22°28' E 113°53'0 0.1
2016-Jun-12 21:28N 22°28' E 113°53'0 0.0
2016-Jun-12 20:28N 22°28' E 113°53'0 0.0
2016-Jun-12 19:10N 22°28' E 113°53'0 0.0
2016-Jun-12 18:28N 22°28' E 113°53'0 0.0
2016-Jun-12 17:22N 22°28' E 113°53'0 0.0
2016-Jun-12 16:16N 22°28' E 113°53'0 0.0
2016-Jun-12 15:22N 22°28' E 113°53'0 0.0
2016-Jun-12 14:28N 22°28' E 113°53'0 0.0
2016-Jun-12 13:22N 22°28' E 113°53'0 0.0
2016-Jun-12 12:28N 22°28' E 113°53'0 0.0
2016-Jun-12 11:16N 22°28' E 113°53'0 0.0
2016-Jun-12 10:28N 22°28' E 113°53'0 0.0
2016-Jun-12 08:22N 22°28' E 113°53'0 0.0
2016-Jun-12 07:28N 22°28' E 113°53'0 0.0
2016-Jun-12 06:28N 22°28' E 113°53'4 2.3
2016-Jun-12 04:33N 22°23' E 113°54'11 9.5
2016-Jun-12 03:25N 22°20' E 114°05'18 9.5
2016-Jun-12 01:32N 22°08' E 114°19'1312.7
2016-Jun-12 00:32N 22°10' E 114°33'22614.8
2016-Jun-11 09:18N 23°53' E 118°11'1215.7
2016-Jun-11 08:33N 24°02' E 118°19'1414.3
2016-Jun-11 07:33N 24°16' E 118°14'1010.1
2016-Jun-11 06:33N 24°24' E 118°07'6 5.9
2016-Jun-11 05:33N 24°27' E 118°01'0 0.0
2016-Jun-11 04:33N 24°27' E 118°01'0 0.0
2016-Jun-11 03:33N 24°27' E 118°01'0 0.0
2016-Jun-11 02:33N 24°27' E 118°01'0 0.0
2016-Jun-11 01:33N 24°27' E 118°01'0 0.0
2016-Jun-11 00:33N 24°27' E 118°01'0 0.0
2016-Jun-10 23:30N 24°27' E 118°01'0 0.0
2016-Jun-10 22:33N 24°27' E 118°01'0 0.0
2016-Jun-10 21:30N 24°27' E 118°01'0 0.0
2016-Jun-10 20:30N 24°27' E 118°01'0 0.0
2016-Jun-10 19:30N 24°27' E 118°01'0 0.0
2016-Jun-10 18:30N 24°27' E 118°01'0 0.0
2016-Jun-10 17:33N 24°27' E 118°01'1 0.6
2016-Jun-10 16:33N 24°26' E 118°02'1111.1
2016-Jun-10 15:33N 24°19' E 118°11'1211.9
2016-Jun-10 14:32N 24°14' E 118°23'5117.1
2016-Jun-10 11:33N 24°32' E 119°15'34019.5
2016-Jun-09 18:04N 29°25' E 122°30'1019.5
2016-Jun-09 17:33N 29°35' E 122°29'1514.6
2016-Jun-09 16:30N 29°46' E 122°17'1111.8
2016-Jun-09 15:33N 29°55' E 122°09'6 5.9
2016-Jun-09 14:33N 29°54' E 122°02'0 0.0
2016-Jun-09 10:12N 29°54' E 122°02'0 0.0
2016-Jun-09 09:30N 29°54' E 122°02'0 0.0
2016-Jun-09 08:30N 29°54' E 122°02'0 0.0
2016-Jun-09 07:24N 29°54' E 122°02'0 0.0
2016-Jun-09 05:24N 29°54' E 122°02'0 0.0
2016-Jun-09 04:30N 29°54' E 122°02'0 0.0
2016-Jun-09 03:12N 29°54' E 122°02'0 0.0
2016-Jun-08 20:24N 29°54' E 122°02'0 0.5
2016-Jun-08 19:33N 29°54' E 122°03'9 8.9
2016-Jun-08 18:33N 29°51' E 122°12'10 9.6
2016-Jun-08 17:31N 29°44' E 122°20'4 0.5
2016-Jun-08 09:32N 29°44' E 122°25'46 6.6
2016-Jun-08 02:32N 30°24' E 122°51'10 9.0
2016-Jun-08 01:25N 30°29' E 122°40'3410.8
2016-Jun-07 22:17N 30°38' E 122°03'  
Track history (hours):
 
Tides and Currents Weather Stations Pressure Air Temp Water Temp Dewpoint Dewpoint Depression Visibility Wind Speed Wind Dir Waves Ship Positions

MSC Bari

Last reported at 2016-Jun-17 18:22 UTC. Time now 2016-Jun-29 00:14 UTC.
Position N 01°11' E 103°39'.
Warning: this ship's position is 11 days out of date.

Length 366 m; draft 16.3 m.

Type: Ship (hazmat cat A). MMSI: 636092188.

Date/timePositionNaut miles runAvg speedWind from/ knotsBaromVisibWave heightAir tempDewpointWater temp
2016-Jun-17 18:22N 01°11' E 103°39'810.4
2016-Jun-17 17:33N 01°10' E 103°48'6 6.2
2016-Jun-17 16:34N 01°16' E 103°46'0 0.2
2016-Jun-17 15:33N 01°16' E 103°46'0 0.0
2016-Jun-17 14:33N 01°16' E 103°46'0 0.0
2016-Jun-17 13:33N 01°16' E 103°46'0 0.0
2016-Jun-17 12:33N 01°16' E 103°46'0 0.0
2016-Jun-17 11:33N 01°16' E 103°46'0 0.0
2016-Jun-17 10:24N 01°16' E 103°46'0 0.0
2016-Jun-17 09:30N 01°16' E 103°46'0 0.0
2016-Jun-17 08:24N 01°16' E 103°46'0 0.0
2016-Jun-17 07:33N 01°16' E 103°46'0 0.0
2016-Jun-17 06:18N 01°16' E 103°46'0 0.0
2016-Jun-17 05:33N 01°16' E 103°46'0 0.0
2016-Jun-17 04:33N 01°16' E 103°46'0 0.0
2016-Jun-17 03:33N 01°16' E 103°46'0 0.0
2016-Jun-17 02:33N 01°16' E 103°46'0 0.0
2016-Jun-17 01:33N 01°16' E 103°46'0 0.0
2016-Jun-17 00:30N 01°16' E 103°46'0 0.0
2016-Jun-16 23:33N 01°16' E 103°46'0 0.0
2016-Jun-16 22:33N 01°16' E 103°46'0 0.0
2016-Jun-16 21:33N 01°16' E 103°46'0 0.0
2016-Jun-16 20:33N 01°16' E 103°46'0 0.0
2016-Jun-16 19:27N 01°16' E 103°46'0 0.0
2016-Jun-16 18:30N 01°16' E 103°46'0 0.0
2016-Jun-16 17:30N 01°16' E 103°46'0 0.0
2016-Jun-16 16:33N 01°16' E 103°46'0 0.0
2016-Jun-16 15:33N 01°16' E 103°46'0 0.0
2016-Jun-16 14:33N 01°16' E 103°46'0 0.0
2016-Jun-16 13:33N 01°16' E 103°46'0 0.0
2016-Jun-16 12:33N 01°16' E 103°46'0 0.0
2016-Jun-16 11:33N 01°16' E 103°46'0 0.0
2016-Jun-16 10:27N 01°16' E 103°46'0 0.0
2016-Jun-16 09:30N 01°16' E 103°46'0 0.5
2016-Jun-16 08:34N 01°16' E 103°46'8 7.7
2016-Jun-16 07:33N 01°13' E 103°53'1110.9
2016-Jun-16 06:33N 01°16' E 104°04'  
2016-Jun-13 08:33N 21°03' E 114°10'7515.1
2016-Jun-13 03:33N 22°19' E 114°05'1210.3
2016-Jun-13 02:25N 22°23' E 113°54'5 5.3
2016-Jun-13 01:33N 22°28' E 113°53'0 0.1
2016-Jun-13 00:28N 22°28' E 113°53'0 0.0
2016-Jun-12 23:28N 22°28' E 113°53'0 0.0
2016-Jun-12 22:22N 22°28' E 113°53'0 0.1
2016-Jun-12 21:28N 22°28' E 113°53'0 0.0
2016-Jun-12 20:28N 22°28' E 113°53'0 0.0
2016-Jun-12 19:10N 22°28' E 113°53'0 0.0
2016-Jun-12 18:28N 22°28' E 113°53'0 0.0
2016-Jun-12 17:22N 22°28' E 113°53'0 0.0
2016-Jun-12 16:16N 22°28' E 113°53'0 0.0
2016-Jun-12 15:22N 22°28' E 113°53'0 0.0
2016-Jun-12 14:28N 22°28' E 113°53'0 0.0
2016-Jun-12 13:22N 22°28' E 113°53'0 0.0
2016-Jun-12 12:28N 22°28' E 113°53'0 0.0
2016-Jun-12 11:16N 22°28' E 113°53'0 0.0
2016-Jun-12 10:28N 22°28' E 113°53'0 0.0
2016-Jun-12 08:22N 22°28' E 113°53'0 0.0
2016-Jun-12 07:28N 22°28' E 113°53'0 0.0
2016-Jun-12 06:28N 22°28' E 113°53'4 2.3
2016-Jun-12 04:33N 22°23' E 113°54'11 9.5
2016-Jun-12 03:25N 22°20' E 114°05'18 9.5
2016-Jun-12 01:32N 22°08' E 114°19'1312.7
2016-Jun-12 00:32N 22°10' E 114°33'22614.8
2016-Jun-11 09:18N 23°53' E 118°11'1215.7
2016-Jun-11 08:33N 24°02' E 118°19'1414.3
2016-Jun-11 07:33N 24°16' E 118°14'1010.1
2016-Jun-11 06:33N 24°24' E 118°07'6 5.9
2016-Jun-11 05:33N 24°27' E 118°01'0 0.0
2016-Jun-11 04:33N 24°27' E 118°01'0 0.0
2016-Jun-11 03:33N 24°27' E 118°01'0 0.0
2016-Jun-11 02:33N 24°27' E 118°01'0 0.0
2016-Jun-11 01:33N 24°27' E 118°01'0 0.0
2016-Jun-11 00:33N 24°27' E 118°01'0 0.0
2016-Jun-10 23:30N 24°27' E 118°01'0 0.0
2016-Jun-10 22:33N 24°27' E 118°01'0 0.0
2016-Jun-10 21:30N 24°27' E 118°01'0 0.0
2016-Jun-10 20:30N 24°27' E 118°01'0 0.0
2016-Jun-10 19:30N 24°27' E 118°01'0 0.0
2016-Jun-10 18:30N 24°27' E 118°01'0 0.0
2016-Jun-10 17:33N 24°27' E 118°01'1 0.6
2016-Jun-10 16:33N 24°26' E 118°02'1111.1
2016-Jun-10 15:33N 24°19' E 118°11'1211.9
2016-Jun-10 14:32N 24°14' E 118°23'5117.1
2016-Jun-10 11:33N 24°32' E 119°15'34019.5
2016-Jun-09 18:04N 29°25' E 122°30'1019.5
2016-Jun-09 17:33N 29°35' E 122°29'1514.6
2016-Jun-09 16:30N 29°46' E 122°17'1111.8
2016-Jun-09 15:33N 29°55' E 122°09'6 5.9
2016-Jun-09 14:33N 29°54' E 122°02'0 0.0
2016-Jun-09 10:12N 29°54' E 122°02'0 0.0
2016-Jun-09 09:30N 29°54' E 122°02'0 0.0
2016-Jun-09 08:30N 29°54' E 122°02'0 0.0
2016-Jun-09 07:24N 29°54' E 122°02'0 0.0
2016-Jun-09 05:24N 29°54' E 122°02'0 0.0
2016-Jun-09 04:30N 29°54' E 122°02'0 0.0
2016-Jun-09 03:12N 29°54' E 122°02'0 0.0
2016-Jun-08 20:24N 29°54' E 122°02'0 0.5
2016-Jun-08 19:33N 29°54' E 122°03'9 8.9
2016-Jun-08 18:33N 29°51' E 122°12'10 9.6
2016-Jun-08 17:31N 29°44' E 122°20'4 0.5
2016-Jun-08 09:32N 29°44' E 122°25'46 6.6
2016-Jun-08 02:32N 30°24' E 122°51'10 9.0
2016-Jun-08 01:25N 30°29' E 122°40'3410.8
2016-Jun-07 22:17N 30°38' E 122°03'  

Dump ship's entire track history